Nyk Arcadia — 3EXI5 — position and weather

sailwx.info

Track history (hours):
 
Tides and Currents Weather Stations Pressure Air Temp Water Temp Dewpoint Dewpoint Depression Visibility Wind Speed Wind Dir Waves Ship Positions

Nyk Arcadia

Last reported at 2018-Jun-25 14:00 UTC. Time now 2018-Jun-25 14:16 UTC.
Position N 50°51' W 001°20'.

Length 332 m; draft 13.7 m.

Type: Other ship. MMSI: 353523986.

Date/timePositionNaut miles runAvg speedWind from/ knotsBaromVisibWave heightAir tempDewpointWater temp
2018-Jun-25 14:00N 50°51' W 001°20'4 7.2
2018-Jun-25 13:30N 50°47' W 001°19'611.2
2018-Jun-25 13:00N 50°46' W 001°10'815.0
2018-Jun-25 12:30N 50°43' W 000°59'510.9
2018-Jun-25 12:00N 50°37' W 000°58'5 9.6
2018-Jun-25 11:31N 50°33' W 001°02'0 0.7
2018-Jun-25 11:00N 50°33' W 001°02'0 0.4
2018-Jun-25 10:30N 50°33' W 001°02'0 0.1
2018-Jun-25 10:00N 50°33' W 001°02'0 0.8
2018-Jun-25 09:30N 50°33' W 001°02'0 0.2
2018-Jun-25 09:00N 50°33' W 001°01'0 0.0
2018-Jun-25 08:27N 50°33' W 001°01'0 0.0
2018-Jun-25 08:00N 50°33' W 001°01'0 0.0
2018-Jun-25 07:27N 50°33' W 001°01'0 0.0
2018-Jun-25 07:00N 50°33' W 001°01'0 0.0
2018-Jun-25 06:30N 50°33' W 001°01'0 0.0
2018-Jun-25 06:00N 50°33' W 001°01'0 0.0
2018-Jun-25 05:30N 50°33' W 001°01'0 0.0
2018-Jun-25 05:00N 50°33' W 001°01'0 0.0
2018-Jun-25 04:30N 50°33' W 001°01'0 0.7
2018-Jun-25 04:00N 50°33' W 001°02'0 0.4
2018-Jun-25 03:30N 50°33' W 001°02'0 0.0
2018-Jun-25 03:00N 50°33' W 001°02'0 0.0
2018-Jun-25 02:30N 50°33' W 001°02'0 0.0
2018-Jun-25 02:00N 50°33' W 001°02'0 0.0
2018-Jun-25 01:30N 50°33' W 001°02'0 0.0
2018-Jun-25 01:00N 50°33' W 001°02'0 0.0
2018-Jun-25 00:30N 50°33' W 001°02'0 0.0
2018-Jun-25 00:00N 50°33' W 001°02'0 0.2
2018-Jun-24 23:30N 50°33' W 001°02'1 1.5
2018-Jun-24 23:00N 50°33' W 001°03'2 4.7
2018-Jun-24 22:30N 50°32' W 000°59'5 9.2
2018-Jun-24 22:00N 50°33' W 000°52'510.9
2018-Jun-24 21:30N 50°34' W 000°43'611.8
2018-Jun-24 21:00N 50°33' W 000°34'510.9
2018-Jun-24 20:30N 50°33' W 000°25'510.4
2018-Jun-24 20:00N 50°32' W 000°17'510.1
2018-Jun-24 19:30N 50°32' W 000°09'510.8
2018-Jun-24 19:00N 50°32' W 000°01'611.2
2018-Jun-24 18:30N 50°33' E 000°08'611.1
2018-Jun-24 18:00N 50°34' E 000°16'611.6
2018-Jun-24 17:30N 50°35' E 000°25'612.2
2018-Jun-24 17:00N 50°37' E 000°35'612.7
2018-Jun-24 16:30N 50°40' E 000°43'713.5
2018-Jun-24 16:00N 50°44' E 000°52'714.3
2018-Jun-24 15:31N 50°48' E 001°02'814.9
2018-Jun-24 15:00N 50°52' E 001°11'815.1
2018-Jun-24 14:30N 50°57' E 001°21'714.5
2018-Jun-24 14:00N 51°02' E 001°28'713.3
2018-Jun-24 13:30N 51°07' E 001°36'612.7
2018-Jun-24 13:00N 51°11' E 001°43'612.2
2018-Jun-24 12:30N 51°16' E 001°49'611.7
2018-Jun-24 12:00N 51°21' E 001°53'611.5
2018-Jun-24 11:30N 51°26' E 001°58'611.7
2018-Jun-24 11:00N 51°31' E 002°03'611.7
2018-Jun-24 10:30N 51°35' E 002°10'611.9
2018-Jun-24 10:00N 51°40' E 002°16'612.1
2018-Jun-24 09:30N 51°44' E 002°23'612.5
2018-Jun-24 09:00N 51°49' E 002°30'612.9
2018-Jun-24 08:30N 51°54' E 002°37'713.4
2018-Jun-24 08:00N 51°59' E 002°44'713.9
2018-Jun-24 07:31N 52°04' E 002°51'714.2
2018-Jun-24 07:01N 52°10' E 002°58'714.4
2018-Jun-24 06:30N 52°16' E 003°05'714.5
2018-Jun-24 06:01N 52°22' E 003°11'814.5
2018-Jun-24 05:29N 52°28' E 003°18'714.4
2018-Jun-24 05:00N 52°34' E 003°25'714.1
2018-Jun-24 04:30N 52°39' E 003°32'713.6
2018-Jun-24 04:00N 52°45' E 003°39'713.2
2018-Jun-24 03:28N 52°50' E 003°46'612.8
2018-Jun-24 03:00N 52°55' E 003°53'712.6
2018-Jun-24 02:29N 52°59' E 004°01'612.3
2018-Jun-24 01:59N 53°03' E 004°08'812.0
2018-Jun-24 01:21N 53°08' E 004°17'411.9
2018-Jun-24 01:00N 53°11' E 004°23'611.8
2018-Jun-24 00:30N 53°16' E 004°28'612.3
2018-Jun-24 00:00N 53°21' E 004°33'712.8
2018-Jun-23 23:29N 53°27' E 004°38'613.4
2018-Jun-23 23:00N 53°30' E 004°48'713.9
2018-Jun-23 22:30N 53°33' E 004°58'714.1
2018-Jun-23 22:00N 53°36' E 005°09'714.0
2018-Jun-23 21:30N 53°39' E 005°20'713.8
2018-Jun-23 21:00N 53°41' E 005°31'713.5
2018-Jun-23 20:30N 53°43' E 005°42'713.4
2018-Jun-23 20:00N 53°45' E 005°53'1012.8
2018-Jun-23 19:12N 53°48' E 006°09'612.4
2018-Jun-23 18:42N 53°50' E 006°19'1111.5
2018-Jun-23 17:45N 53°52' E 006°37'411.1
2018-Jun-23 17:25N 53°53' E 006°43'510.9
2018-Jun-23 16:58N 53°54' E 006°52'610.6
2018-Jun-23 16:26N 53°56' E 007°01'410.1
2018-Jun-23 16:00N 53°57' E 007°08'5 9.9
2018-Jun-23 15:29N 53°58' E 007°17'3211.0
2018-Jun-23 12:32N 54°00' E 008°11'0 9.9
2018-Jun-23 12:30N 54°00' E 008°12'611.3
2018-Jun-23 12:00N 53°59' E 008°21'714.8
2018-Jun-23 11:30N 53°58' E 008°34'713.8
2018-Jun-23 11:00N 53°53' E 008°42'612.4
2018-Jun-23 10:30N 53°50' E 008°51'612.6
2018-Jun-23 10:00N 53°52' E 009°02'510.5
2018-Jun-23 09:30N 53°53' E 009°11'510.2
2018-Jun-23 09:00N 53°51' E 009°19'510.5
2018-Jun-23 08:30N 53°47' E 009°24'5 9.7
2018-Jun-23 08:00N 53°43' E 009°29'5 9.5
2018-Jun-23 07:30N 53°39' E 009°31'510.1
2018-Jun-23 07:00N 53°35' E 009°37'4 8.7
2018-Jun-23 06:30N 53°34' E 009°44'4 8.2
2018-Jun-23 06:00N 53°33' E 009°51'3 6.6
2018-Jun-23 05:30N 53°32' E 009°56'1 2.7
2018-Jun-23 04:59N 53°30' E 009°56'0 0.0
2018-Jun-23 04:30N 53°30' E 009°56'0 0.0
2018-Jun-23 03:59N 53°30' E 009°56'0 0.0
2018-Jun-23 03:30N 53°30' E 009°56'0 0.0
2018-Jun-23 02:59N 53°30' E 009°56'0 0.0
2018-Jun-23 02:30N 53°30' E 009°56'0 0.0
2018-Jun-23 02:00N 53°30' E 009°56'0 0.0
2018-Jun-23 01:29N 53°30' E 009°56'0 0.0
2018-Jun-23 01:00N 53°30' E 009°56'0 0.0
2018-Jun-23 00:30N 53°30' E 009°56'0 0.0
2018-Jun-22 23:59N 53°30' E 009°56'0 0.0
2018-Jun-22 23:30N 53°30' E 009°56'0 0.0
2018-Jun-22 23:00N 53°30' E 009°56'0 0.0
2018-Jun-22 22:30N 53°30' E 009°56'0 0.0
2018-Jun-22 21:59N 53°30' E 009°56'0 0.0
2018-Jun-22 21:29N 53°30' E 009°56'0 0.0
2018-Jun-22 20:59N 53°30' E 009°56'0 0.0
2018-Jun-22 20:29N 53°30' E 009°56'0 0.0
2018-Jun-22 19:59N 53°30' E 009°56'0 0.0
2018-Jun-22 19:29N 53°30' E 009°56'0 0.0
2018-Jun-22 19:00N 53°30' E 009°56'0 0.0
2018-Jun-22 18:30N 53°30' E 009°56'0 0.0
2018-Jun-22 17:59N 53°30' E 009°56'0 0.0
2018-Jun-22 17:29N 53°30' E 009°56'0 0.0
2018-Jun-22 16:59N 53°30' E 009°56'0 0.0
2018-Jun-22 16:29N 53°30' E 009°56'0 0.0
2018-Jun-22 15:59N 53°30' E 009°56'0 0.0
2018-Jun-22 15:30N 53°30' E 009°56'0 0.0
2018-Jun-22 14:59N 53°30' E 009°56'0 0.0
2018-Jun-22 14:30N 53°30' E 009°56'0 0.0
2018-Jun-22 13:59N 53°30' E 009°56'0 0.0
2018-Jun-22 13:26N 53°30' E 009°56'0 0.0
2018-Jun-22 12:59N 53°30' E 009°56'0 0.0
2018-Jun-22 12:29N 53°30' E 009°56'0 0.0
2018-Jun-22 11:59N 53°30' E 009°56'0 0.0
2018-Jun-22 11:30N 53°30' E 009°56'0 0.0
2018-Jun-22 10:59N 53°30' E 009°56'0 0.0
2018-Jun-22 10:29N 53°30' E 009°56'0 0.0
2018-Jun-22 09:59N 53°30' E 009°56'0 0.0
2018-Jun-22 09:29N 53°30' E 009°56'0 0.0
2018-Jun-22 08:59N 53°30' E 009°56'0 0.0
2018-Jun-22 08:29N 53°30' E 009°56'0 0.0
2018-Jun-22 07:59N 53°30' E 009°56'0 0.0
2018-Jun-22 07:29N 53°30' E 009°56'0 0.0
2018-Jun-22 06:59N 53°30' E 009°56'0 0.0
2018-Jun-22 06:29N 53°30' E 009°56'0 0.0
2018-Jun-22 05:59N 53°30' E 009°56'0 0.0
2018-Jun-22 05:29N 53°30' E 009°56'0 0.0
2018-Jun-22 04:59N 53°30' E 009°56'0 0.0
2018-Jun-22 04:29N 53°30' E 009°56'0 0.0
2018-Jun-22 03:59N 53°30' E 009°56'0 0.0
2018-Jun-22 03:29N 53°30' E 009°56'0 0.9
2018-Jun-22 03:01N 53°30' E 009°57'2 3.0
2018-Jun-22 02:30N 53°31' E 009°56'3 6.0
2018-Jun-22 02:01N 53°33' E 009°52'4 8.5
2018-Jun-22 01:31N 53°34' E 009°45'5 9.9
2018-Jun-22 01:01N 53°35' E 009°37'510.3
2018-Jun-22 00:30N 53°39' E 009°31'5 9.9
2018-Jun-22 00:00N 53°44' E 009°27'510.9
2018-Jun-21 23:30N 53°48' E 009°23'611.8
2018-Jun-21 23:00N 53°52' E 009°16'5 9.2
2018-Jun-21 22:30N 53°53' E 009°08'4 7.1
2018-Jun-21 22:00N 53°52' E 009°02'511.0
2018-Jun-21 21:30N 53°50' E 008°53'611.8
2018-Jun-21 21:00N 53°52' E 008°43'612.4
2018-Jun-21 20:30N 53°57' E 008°37'612.8
2018-Jun-21 20:00N 53°59' E 008°26'612.8
2018-Jun-21 19:30N 53°60' E 008°16'5 9.0
2018-Jun-21 19:00N 53°59' E 008°08'5 9.5
2018-Jun-21 18:29N 53°58' E 008°00'611.9
2018-Jun-21 18:01N 53°57' E 007°51'6212.7
2018-Jun-21 13:09N 53°43' E 006°09'412.5
2018-Jun-21 12:51N 53°42' E 006°03'412.6
2018-Jun-21 12:30N 53°40' E 005°56'612.6
2018-Jun-21 12:01N 53°39' E 005°46'713.4
2018-Jun-21 11:31N 53°36' E 005°35'714.0
2018-Jun-21 11:01N 53°34' E 005°24'714.1
2018-Jun-21 10:31N 53°32' E 005°12'714.2
2018-Jun-21 10:00N 53°29' E 005°02'713.4
2018-Jun-21 09:30N 53°26' E 004°52'612.5
2018-Jun-21 09:00N 53°23' E 004°43'612.0
2018-Jun-21 08:30N 53°17' E 004°38'611.8
2018-Jun-21 08:00N 53°12' E 004°33'611.4
2018-Jun-21 07:30N 53°07' E 004°29'511.2
2018-Jun-21 07:00N 53°02' E 004°25'510.9
2018-Jun-21 06:30N 52°57' E 004°20'510.9
2018-Jun-21 06:00N 52°53' E 004°16'510.9
2018-Jun-21 05:30N 52°48' E 004°11'510.9
2018-Jun-21 05:00N 52°43' E 004°06'510.0
2018-Jun-21 04:30N 52°39' E 004°02'5 9.7
2018-Jun-21 04:00N 52°35' E 003°57'5 9.3
2018-Jun-21 03:30N 52°31' E 003°55'5 9.3
2018-Jun-21 03:00N 52°26' E 003°54'5 9.4
2018-Jun-21 02:30N 52°22' E 003°53'5 9.7
2018-Jun-21 02:00N 52°17' E 003°52'510.4
2018-Jun-21 01:30N 52°12' E 003°53'611.4
2018-Jun-21 01:00N 52°06' E 003°55'4 8.9
2018-Jun-21 00:30N 52°02' E 003°57'510.9
2018-Jun-21 00:00N 51°59' E 004°05'2 4.2
2018-Jun-20 23:30N 51°57' E 004°03'0 0.8
2018-Jun-20 22:59N 51°57' E 004°03'0 0.0
2018-Jun-20 22:29N 51°57' E 004°03'0 0.0
2018-Jun-20 21:59N 51°57' E 004°03'0 0.0
2018-Jun-20 21:29N 51°57' E 004°03'0 0.0
2018-Jun-20 20:59N 51°57' E 004°03'0 0.0
2018-Jun-20 20:29N 51°57' E 004°03'0 0.0
2018-Jun-20 19:59N 51°57' E 004°03'0 0.0
2018-Jun-20 19:29N 51°57' E 004°03'0 0.0
2018-Jun-20 18:59N 51°57' E 004°03'0 0.0
2018-Jun-20 18:29N 51°57' E 004°03'0 0.0
2018-Jun-20 17:59N 51°57' E 004°03'0 0.0
2018-Jun-20 17:29N 51°57' E 004°03'0 0.0
2018-Jun-20 16:59N 51°57' E 004°03'0 0.0
2018-Jun-20 16:29N 51°57' E 004°03'0 0.0
2018-Jun-20 15:59N 51°57' E 004°03'0 0.0
2018-Jun-20 15:29N 51°57' E 004°03'0 0.0
2018-Jun-20 14:59N 51°57' E 004°03'0 0.0
2018-Jun-20 14:29N 51°57' E 004°03'0 0.0
2018-Jun-20 13:59N 51°57' E 004°03'0 0.0
2018-Jun-20 13:29N 51°57' E 004°03'0 0.0
2018-Jun-20 12:59N 51°57' E 004°03'0 0.0
2018-Jun-20 12:29N 51°57' E 004°03'0 0.0
2018-Jun-20 11:59N 51°57' E 004°03'0 0.0
2018-Jun-20 11:29N 51°57' E 004°03'0 0.0
2018-Jun-20 10:59N 51°57' E 004°03'0 0.0
2018-Jun-20 10:29N 51°57' E 004°03'0 0.0
2018-Jun-20 09:59N 51°57' E 004°03'0 0.0
2018-Jun-20 09:29N 51°57' E 004°03'0 0.0
2018-Jun-20 08:59N 51°57' E 004°03'0 0.0
2018-Jun-20 08:29N 51°57' E 004°03'0 0.0
2018-Jun-20 07:59N 51°57' E 004°03'0 0.0
2018-Jun-20 07:29N 51°57' E 004°03'0 0.0
2018-Jun-20 06:59N 51°57' E 004°03'0 0.0
2018-Jun-20 06:30N 51°57' E 004°03'0 0.0
2018-Jun-20 05:59N 51°57' E 004°03'0 0.0
2018-Jun-20 05:29N 51°57' E 004°03'0 0.0
2018-Jun-20 04:59N 51°57' E 004°03'0 0.0
2018-Jun-20 04:29N 51°57' E 004°03'0 0.0
2018-Jun-20 03:59N 51°57' E 004°03'0 0.0
2018-Jun-20 03:29N 51°57' E 004°03'0 0.0
2018-Jun-20 02:59N 51°57' E 004°03'0 0.0
2018-Jun-20 02:29N 51°57' E 004°03'0 0.0
2018-Jun-20 01:59N 51°57' E 004°03'0 0.0
2018-Jun-20 01:29N 51°57' E 004°03'0 0.0
2018-Jun-20 00:59N 51°57' E 004°03'0 0.0
2018-Jun-20 00:29N 51°57' E 004°03'0 0.0
2018-Jun-19 23:59N 51°57' E 004°03'0 0.0
2018-Jun-19 23:29N 51°57' E 004°03'0 0.0
2018-Jun-19 22:59N 51°57' E 004°03'0 0.0
2018-Jun-19 22:29N 51°57' E 004°03'0 0.0
2018-Jun-19 21:59N 51°57' E 004°03'0 0.0
2018-Jun-19 21:29N 51°57' E 004°03'0 0.0
2018-Jun-19 20:59N 51°57' E 004°03'0 0.0
2018-Jun-19 20:29N 51°57' E 004°03'0 0.0
2018-Jun-19 19:59N 51°57' E 004°03'0 0.0
2018-Jun-19 19:29N 51°57' E 004°03'0 0.0
2018-Jun-19 18:59N 51°57' E 004°03'0 0.0
2018-Jun-19 18:29N 51°57' E 004°03'0 0.0
2018-Jun-19 17:59N 51°57' E 004°03'0 0.0
2018-Jun-19 17:29N 51°57' E 004°03'0 0.0
2018-Jun-19 16:59N 51°57' E 004°03'0 0.0
2018-Jun-19 16:26N 51°57' E 004°03'0 0.0
2018-Jun-19 15:59N 51°57' E 004°03'0 0.0
2018-Jun-19 15:29N 51°57' E 004°03'0 0.0
2018-Jun-19 14:59N 51°57' E 004°03'0 0.0
2018-Jun-19 14:29N 51°57' E 004°03'0 0.0
2018-Jun-19 13:59N 51°57' E 004°03'0 0.0
2018-Jun-19 13:29N 51°57' E 004°03'0 0.0
2018-Jun-19 12:59N 51°57' E 004°03'0 0.0
2018-Jun-19 12:29N 51°57' E 004°03'0 0.0
2018-Jun-19 11:59N 51°57' E 004°03'0 0.0
2018-Jun-19 11:29N 51°57' E 004°03'0 0.0
2018-Jun-19 10:59N 51°57' E 004°03'0 0.0
2018-Jun-19 10:29N 51°57' E 004°03'0 0.0
2018-Jun-19 09:59N 51°57' E 004°03'1 2.0
2018-Jun-19 09:30N 51°57' E 004°04'1 2.8
2018-Jun-19 09:00N 51°58' E 004°05'4 8.3
2018-Jun-19 08:30N 52°00' E 003°59'611.3
2018-Jun-19 08:00N 52°00' E 003°50'510.0
2018-Jun-19 07:30N 51°59' E 003°42'612.6
2018-Jun-19 07:00N 51°57' E 003°32'613.0
2018-Jun-19 06:30N 51°56' E 003°22'713.0
2018-Jun-19 06:00N 51°54' E 003°12'713.4
2018-Jun-19 05:30N 51°52' E 003°02'815.8
2018-Jun-19 05:00N 51°50' E 002°49'1016.0
2018-Jun-19 04:24N 51°45' E 002°36'717.1
2018-Jun-19 03:59N 51°40' E 002°27'816.8
2018-Jun-19 03:30N 51°34' E 002°18'816.8
2018-Jun-19 03:01N 51°28' E 002°11'917.3
2018-Jun-19 02:31N 51°19' E 002°08'816.9
2018-Jun-19 02:00N 51°12' E 002°01'917.8
2018-Jun-19 01:31N 51°08' E 001°48'816.9
2018-Jun-19 01:01N 51°03' E 001°38'816.9
2018-Jun-19 00:30N 50°56' E 001°30'816.4
2018-Jun-19 00:00N 50°48' E 001°24'816.6
2018-Jun-18 23:30N 50°41' E 001°19'816.9
2018-Jun-18 23:00N 50°35' E 001°08'917.3
2018-Jun-18 22:30N 50°30' E 000°58'1016.9
2018-Jun-18 21:54N 50°26' E 000°43'916.9
2018-Jun-18 21:20N 50°23' E 000°29'616.7
2018-Jun-18 21:01N 50°22' E 000°20'916.4
2018-Jun-18 20:27N 50°19' E 000°06'716.1
2018-Jun-18 20:01N 50°17' W 000°04'815.9
2018-Jun-18 19:31N 50°13' W 000°15'815.5
2018-Jun-18 19:00N 50°10' W 000°26'815.2
2018-Jun-18 18:30N 50°07' W 000°37'715.0
2018-Jun-18 18:01N 50°03' W 000°47'714.9
2018-Jun-18 17:30N 50°00' W 000°58'714.7
2018-Jun-18 17:01N 49°57' W 001°08'714.5
2018-Jun-18 16:30N 49°54' W 001°18'814.5
2018-Jun-18 15:56N 49°50' W 001°29'714.7
2018-Jun-18 15:29N 49°46' W 001°38'4 7.9
2018-Jun-18 15:00N 49°44' W 001°43'6 9.4
2018-Jun-18 14:25N 49°46' W 001°50'4 9.0
2018-Jun-18 14:00N 49°47' W 001°56'611.9
2018-Jun-18 13:30N 49°49' W 002°04'815.3
2018-Jun-18 12:58N 49°52' W 002°16'715.4
2018-Jun-18 12:29N 49°52' W 002°28'916.6
2018-Jun-18 11:55N 49°49' W 002°42'717.1
2018-Jun-18 11:30N 49°47' W 002°52'916.9
2018-Jun-18 11:00N 49°43' W 003°03'916.7
2018-Jun-18 10:28N 49°38' W 003°15'816.7
2018-Jun-18 10:00N 49°34' W 003°25'1116.6
2018-Jun-18 09:22N 49°30' W 003°40'816.8
2018-Jun-18 08:52N 49°25' W 003°51'816.9
2018-Jun-18 08:25N 49°22' W 004°01'816.9
2018-Jun-18 07:58N 49°18' W 004°11'817.6
2018-Jun-18 07:30N 49°14' W 004°22'918.5
2018-Jun-18 07:00N 49°09' W 004°35'918.3
2018-Jun-18 06:30N 49°05' W 004°47'1019.0
2018-Jun-18 06:00N 49°01' W 005°00'918.9
2018-Jun-18 05:30N 48°57' W 005°13'1018.9
2018-Jun-18 05:00N 48°52' W 005°26'918.5
2018-Jun-18 04:30N 48°47' W 005°37'918.3
2018-Jun-18 04:00N 48°39' W 005°44'1117.9
2018-Jun-18 03:23N 48°29' W 005°51'718.2
2018-Jun-18 03:00N 48°23' W 005°56'1018.3
2018-Jun-18 02:27N 48°14' W 006°03'1018.2
2018-Jun-18 01:53N 48°05' W 006°10'1317.9
2018-Jun-18 01:09N 47°53' W 006°19'317.5
2018-Jun-18 01:00N 47°50' W 006°21'53417.6
2018-Jun-16 18:37N 39°19' W 009°49'217.8
2018-Jun-16 18:30N 39°17' W 009°49'918.0
2018-Jun-16 18:00N 39°08' W 009°50'917.7
2018-Jun-16 17:30N 38°59' W 009°50'918.0
2018-Jun-16 17:00N 38°50' W 009°51'917.9
2018-Jun-16 16:31N 38°41' W 009°51'917.4
2018-Jun-16 16:00N 38°33' W 009°48'917.4
2018-Jun-16 15:30N 38°24' W 009°46'917.3
2018-Jun-16 15:00N 38°15' W 009°44'917.3
2018-Jun-16 14:31N 38°07' W 009°42'917.2
2018-Jun-16 14:01N 37°59' W 009°38'917.2
2018-Jun-16 13:30N 37°50' W 009°36'917.2
2018-Jun-16 13:01N 37°42' W 009°34'917.0
2018-Jun-16 12:31N 37°34' W 009°32'916.9
2018-Jun-16 12:00N 37°25' W 009°29'816.8
2018-Jun-16 11:30N 37°17' W 009°27'816.9
2018-Jun-16 11:01N 37°09' W 009°25'816.7
2018-Jun-16 10:30N 37°01' W 009°23'916.7
2018-Jun-16 09:56N 36°52' W 009°19'817.7
2018-Jun-16 09:30N 36°47' W 009°11'1017.3
2018-Jun-16 08:56N 36°43' W 009°00'717.2
2018-Jun-16 08:31N 36°40' W 008°52'917.7
2018-Jun-16 08:00N 36°38' W 008°41'917.8
2018-Jun-16 07:29N 36°35' W 008°30'918.0
2018-Jun-16 06:59N 36°32' W 008°19'918.1
2018-Jun-16 06:30N 36°30' W 008°09'917.9
2018-Jun-16 06:00N 36°27' W 007°59'1018.3
2018-Jun-16 05:28N 36°24' W 007°47'918.8
2018-Jun-16 05:00N 36°21' W 007°37'919.0
2018-Jun-16 04:30N 36°18' W 007°26'918.9
2018-Jun-16 04:01N 36°15' W 007°14'918.6
2018-Jun-16 03:30N 36°12' W 007°03'918.7
2018-Jun-16 03:00N 36°09' W 006°52'6119.1
2018-Jun-15 23:48N 35°58' W 005°38'414.2
2018-Jun-15 23:30N 35°58' W 005°33'713.6
2018-Jun-15 23:00N 35°60' W 005°24'612.6
2018-Jun-15 22:30N 36°01' W 005°17'714.8
2018-Jun-15 22:00N 36°03' W 005°08'917.8
2018-Jun-15 21:30N 36°04' W 004°57'1017.1
2018-Jun-15 20:56N 36°06' W 004°45'916.5
2018-Jun-15 20:24N 36°07' W 004°34'  
Track history (hours):
 
Tides and Currents Weather Stations Pressure Air Temp Water Temp Dewpoint Dewpoint Depression Visibility Wind Speed Wind Dir Waves Ship Positions

Nyk Arcadia

Last reported at 2018-Jun-25 14:00 UTC. Time now 2018-Jun-25 14:16 UTC.
Position N 50°51' W 001°20'.

Length 332 m; draft 13.7 m.

Type: Other ship. MMSI: 353523986.

Date/timePositionNaut miles runAvg speedWind from/ knotsBaromVisibWave heightAir tempDewpointWater temp
2018-Jun-25 14:00N 50°51' W 001°20'4 7.2
2018-Jun-25 13:30N 50°47' W 001°19'611.2
2018-Jun-25 13:00N 50°46' W 001°10'815.0
2018-Jun-25 12:30N 50°43' W 000°59'510.9
2018-Jun-25 12:00N 50°37' W 000°58'5 9.6
2018-Jun-25 11:31N 50°33' W 001°02'0 0.7
2018-Jun-25 11:00N 50°33' W 001°02'0 0.4
2018-Jun-25 10:30N 50°33' W 001°02'0 0.1
2018-Jun-25 10:00N 50°33' W 001°02'0 0.8
2018-Jun-25 09:30N 50°33' W 001°02'0 0.2
2018-Jun-25 09:00N 50°33' W 001°01'0 0.0
2018-Jun-25 08:27N 50°33' W 001°01'0 0.0
2018-Jun-25 08:00N 50°33' W 001°01'0 0.0
2018-Jun-25 07:27N 50°33' W 001°01'0 0.0
2018-Jun-25 07:00N 50°33' W 001°01'0 0.0
2018-Jun-25 06:30N 50°33' W 001°01'0 0.0
2018-Jun-25 06:00N 50°33' W 001°01'0 0.0
2018-Jun-25 05:30N 50°33' W 001°01'0 0.0
2018-Jun-25 05:00N 50°33' W 001°01'0 0.0
2018-Jun-25 04:30N 50°33' W 001°01'0 0.7
2018-Jun-25 04:00N 50°33' W 001°02'0 0.4
2018-Jun-25 03:30N 50°33' W 001°02'0 0.0
2018-Jun-25 03:00N 50°33' W 001°02'0 0.0
2018-Jun-25 02:30N 50°33' W 001°02'0 0.0
2018-Jun-25 02:00N 50°33' W 001°02'0 0.0
2018-Jun-25 01:30N 50°33' W 001°02'0 0.0
2018-Jun-25 01:00N 50°33' W 001°02'0 0.0
2018-Jun-25 00:30N 50°33' W 001°02'0 0.0
2018-Jun-25 00:00N 50°33' W 001°02'0 0.2
2018-Jun-24 23:30N 50°33' W 001°02'1 1.5
2018-Jun-24 23:00N 50°33' W 001°03'2 4.7
2018-Jun-24 22:30N 50°32' W 000°59'5 9.2
2018-Jun-24 22:00N 50°33' W 000°52'510.9
2018-Jun-24 21:30N 50°34' W 000°43'611.8
2018-Jun-24 21:00N 50°33' W 000°34'510.9
2018-Jun-24 20:30N 50°33' W 000°25'510.4
2018-Jun-24 20:00N 50°32' W 000°17'510.1
2018-Jun-24 19:30N 50°32' W 000°09'510.8
2018-Jun-24 19:00N 50°32' W 000°01'611.2
2018-Jun-24 18:30N 50°33' E 000°08'611.1
2018-Jun-24 18:00N 50°34' E 000°16'611.6
2018-Jun-24 17:30N 50°35' E 000°25'612.2
2018-Jun-24 17:00N 50°37' E 000°35'612.7
2018-Jun-24 16:30N 50°40' E 000°43'713.5
2018-Jun-24 16:00N 50°44' E 000°52'714.3
2018-Jun-24 15:31N 50°48' E 001°02'814.9
2018-Jun-24 15:00N 50°52' E 001°11'815.1
2018-Jun-24 14:30N 50°57' E 001°21'714.5
2018-Jun-24 14:00N 51°02' E 001°28'713.3
2018-Jun-24 13:30N 51°07' E 001°36'612.7
2018-Jun-24 13:00N 51°11' E 001°43'612.2
2018-Jun-24 12:30N 51°16' E 001°49'611.7
2018-Jun-24 12:00N 51°21' E 001°53'611.5
2018-Jun-24 11:30N 51°26' E 001°58'611.7
2018-Jun-24 11:00N 51°31' E 002°03'611.7
2018-Jun-24 10:30N 51°35' E 002°10'611.9
2018-Jun-24 10:00N 51°40' E 002°16'612.1
2018-Jun-24 09:30N 51°44' E 002°23'612.5
2018-Jun-24 09:00N 51°49' E 002°30'612.9
2018-Jun-24 08:30N 51°54' E 002°37'713.4
2018-Jun-24 08:00N 51°59' E 002°44'713.9
2018-Jun-24 07:31N 52°04' E 002°51'714.2
2018-Jun-24 07:01N 52°10' E 002°58'714.4
2018-Jun-24 06:30N 52°16' E 003°05'714.5
2018-Jun-24 06:01N 52°22' E 003°11'814.5
2018-Jun-24 05:29N 52°28' E 003°18'714.4
2018-Jun-24 05:00N 52°34' E 003°25'714.1
2018-Jun-24 04:30N 52°39' E 003°32'713.6
2018-Jun-24 04:00N 52°45' E 003°39'713.2
2018-Jun-24 03:28N 52°50' E 003°46'612.8
2018-Jun-24 03:00N 52°55' E 003°53'712.6
2018-Jun-24 02:29N 52°59' E 004°01'612.3
2018-Jun-24 01:59N 53°03' E 004°08'812.0
2018-Jun-24 01:21N 53°08' E 004°17'411.9
2018-Jun-24 01:00N 53°11' E 004°23'611.8
2018-Jun-24 00:30N 53°16' E 004°28'612.3
2018-Jun-24 00:00N 53°21' E 004°33'712.8
2018-Jun-23 23:29N 53°27' E 004°38'613.4
2018-Jun-23 23:00N 53°30' E 004°48'713.9
2018-Jun-23 22:30N 53°33' E 004°58'714.1
2018-Jun-23 22:00N 53°36' E 005°09'714.0
2018-Jun-23 21:30N 53°39' E 005°20'713.8
2018-Jun-23 21:00N 53°41' E 005°31'713.5
2018-Jun-23 20:30N 53°43' E 005°42'713.4
2018-Jun-23 20:00N 53°45' E 005°53'1012.8
2018-Jun-23 19:12N 53°48' E 006°09'612.4
2018-Jun-23 18:42N 53°50' E 006°19'1111.5
2018-Jun-23 17:45N 53°52' E 006°37'411.1
2018-Jun-23 17:25N 53°53' E 006°43'510.9
2018-Jun-23 16:58N 53°54' E 006°52'610.6
2018-Jun-23 16:26N 53°56' E 007°01'410.1
2018-Jun-23 16:00N 53°57' E 007°08'5 9.9
2018-Jun-23 15:29N 53°58' E 007°17'3211.0
2018-Jun-23 12:32N 54°00' E 008°11'0 9.9
2018-Jun-23 12:30N 54°00' E 008°12'611.3
2018-Jun-23 12:00N 53°59' E 008°21'714.8
2018-Jun-23 11:30N 53°58' E 008°34'713.8
2018-Jun-23 11:00N 53°53' E 008°42'612.4
2018-Jun-23 10:30N 53°50' E 008°51'612.6
2018-Jun-23 10:00N 53°52' E 009°02'510.5
2018-Jun-23 09:30N 53°53' E 009°11'510.2
2018-Jun-23 09:00N 53°51' E 009°19'510.5
2018-Jun-23 08:30N 53°47' E 009°24'5 9.7
2018-Jun-23 08:00N 53°43' E 009°29'5 9.5
2018-Jun-23 07:30N 53°39' E 009°31'510.1
2018-Jun-23 07:00N 53°35' E 009°37'4 8.7
2018-Jun-23 06:30N 53°34' E 009°44'4 8.2
2018-Jun-23 06:00N 53°33' E 009°51'3 6.6
2018-Jun-23 05:30N 53°32' E 009°56'1 2.7
2018-Jun-23 04:59N 53°30' E 009°56'0 0.0
2018-Jun-23 04:30N 53°30' E 009°56'0 0.0
2018-Jun-23 03:59N 53°30' E 009°56'0 0.0
2018-Jun-23 03:30N 53°30' E 009°56'0 0.0
2018-Jun-23 02:59N 53°30' E 009°56'0 0.0
2018-Jun-23 02:30N 53°30' E 009°56'0 0.0
2018-Jun-23 02:00N 53°30' E 009°56'0 0.0
2018-Jun-23 01:29N 53°30' E 009°56'0 0.0
2018-Jun-23 01:00N 53°30' E 009°56'0 0.0
2018-Jun-23 00:30N 53°30' E 009°56'0 0.0
2018-Jun-22 23:59N 53°30' E 009°56'0 0.0
2018-Jun-22 23:30N 53°30' E 009°56'0 0.0
2018-Jun-22 23:00N 53°30' E 009°56'0 0.0
2018-Jun-22 22:30N 53°30' E 009°56'0 0.0
2018-Jun-22 21:59N 53°30' E 009°56'0 0.0
2018-Jun-22 21:29N 53°30' E 009°56'0 0.0
2018-Jun-22 20:59N 53°30' E 009°56'0 0.0
2018-Jun-22 20:29N 53°30' E 009°56'0 0.0
2018-Jun-22 19:59N 53°30' E 009°56'0 0.0
2018-Jun-22 19:29N 53°30' E 009°56'0 0.0
2018-Jun-22 19:00N 53°30' E 009°56'0 0.0
2018-Jun-22 18:30N 53°30' E 009°56'0 0.0
2018-Jun-22 17:59N 53°30' E 009°56'0 0.0
2018-Jun-22 17:29N 53°30' E 009°56'0 0.0
2018-Jun-22 16:59N 53°30' E 009°56'0 0.0
2018-Jun-22 16:29N 53°30' E 009°56'0 0.0
2018-Jun-22 15:59N 53°30' E 009°56'0 0.0
2018-Jun-22 15:30N 53°30' E 009°56'0 0.0
2018-Jun-22 14:59N 53°30' E 009°56'0 0.0
2018-Jun-22 14:30N 53°30' E 009°56'0 0.0
2018-Jun-22 13:59N 53°30' E 009°56'0 0.0
2018-Jun-22 13:26N 53°30' E 009°56'0 0.0
2018-Jun-22 12:59N 53°30' E 009°56'0 0.0
2018-Jun-22 12:29N 53°30' E 009°56'0 0.0
2018-Jun-22 11:59N 53°30' E 009°56'0 0.0
2018-Jun-22 11:30N 53°30' E 009°56'0 0.0
2018-Jun-22 10:59N 53°30' E 009°56'0 0.0
2018-Jun-22 10:29N 53°30' E 009°56'0 0.0
2018-Jun-22 09:59N 53°30' E 009°56'0 0.0
2018-Jun-22 09:29N 53°30' E 009°56'0 0.0
2018-Jun-22 08:59N 53°30' E 009°56'0 0.0
2018-Jun-22 08:29N 53°30' E 009°56'0 0.0
2018-Jun-22 07:59N 53°30' E 009°56'0 0.0
2018-Jun-22 07:29N 53°30' E 009°56'0 0.0
2018-Jun-22 06:59N 53°30' E 009°56'0 0.0
2018-Jun-22 06:29N 53°30' E 009°56'0 0.0
2018-Jun-22 05:59N 53°30' E 009°56'0 0.0
2018-Jun-22 05:29N 53°30' E 009°56'0 0.0
2018-Jun-22 04:59N 53°30' E 009°56'0 0.0
2018-Jun-22 04:29N 53°30' E 009°56'0 0.0
2018-Jun-22 03:59N 53°30' E 009°56'0 0.0
2018-Jun-22 03:29N 53°30' E 009°56'0 0.9
2018-Jun-22 03:01N 53°30' E 009°57'2 3.0
2018-Jun-22 02:30N 53°31' E 009°56'3 6.0
2018-Jun-22 02:01N 53°33' E 009°52'4 8.5
2018-Jun-22 01:31N 53°34' E 009°45'5 9.9
2018-Jun-22 01:01N 53°35' E 009°37'510.3
2018-Jun-22 00:30N 53°39' E 009°31'5 9.9
2018-Jun-22 00:00N 53°44' E 009°27'510.9
2018-Jun-21 23:30N 53°48' E 009°23'611.8
2018-Jun-21 23:00N 53°52' E 009°16'5 9.2
2018-Jun-21 22:30N 53°53' E 009°08'4 7.1
2018-Jun-21 22:00N 53°52' E 009°02'511.0
2018-Jun-21 21:30N 53°50' E 008°53'611.8
2018-Jun-21 21:00N 53°52' E 008°43'612.4
2018-Jun-21 20:30N 53°57' E 008°37'612.8
2018-Jun-21 20:00N 53°59' E 008°26'612.8
2018-Jun-21 19:30N 53°60' E 008°16'5 9.0
2018-Jun-21 19:00N 53°59' E 008°08'5 9.5
2018-Jun-21 18:29N 53°58' E 008°00'611.9
2018-Jun-21 18:01N 53°57' E 007°51'6212.7
2018-Jun-21 13:09N 53°43' E 006°09'412.5
2018-Jun-21 12:51N 53°42' E 006°03'412.6
2018-Jun-21 12:30N 53°40' E 005°56'612.6
2018-Jun-21 12:01N 53°39' E 005°46'713.4
2018-Jun-21 11:31N 53°36' E 005°35'714.0
2018-Jun-21 11:01N 53°34' E 005°24'714.1
2018-Jun-21 10:31N 53°32' E 005°12'714.2
2018-Jun-21 10:00N 53°29' E 005°02'713.4
2018-Jun-21 09:30N 53°26' E 004°52'612.5
2018-Jun-21 09:00N 53°23' E 004°43'612.0
2018-Jun-21 08:30N 53°17' E 004°38'611.8
2018-Jun-21 08:00N 53°12' E 004°33'611.4
2018-Jun-21 07:30N 53°07' E 004°29'511.2
2018-Jun-21 07:00N 53°02' E 004°25'510.9
2018-Jun-21 06:30N 52°57' E 004°20'510.9
2018-Jun-21 06:00N 52°53' E 004°16'510.9
2018-Jun-21 05:30N 52°48' E 004°11'510.9
2018-Jun-21 05:00N 52°43' E 004°06'510.0
2018-Jun-21 04:30N 52°39' E 004°02'5 9.7
2018-Jun-21 04:00N 52°35' E 003°57'5 9.3
2018-Jun-21 03:30N 52°31' E 003°55'5 9.3
2018-Jun-21 03:00N 52°26' E 003°54'5 9.4
2018-Jun-21 02:30N 52°22' E 003°53'5 9.7
2018-Jun-21 02:00N 52°17' E 003°52'510.4
2018-Jun-21 01:30N 52°12' E 003°53'611.4
2018-Jun-21 01:00N 52°06' E 003°55'4 8.9
2018-Jun-21 00:30N 52°02' E 003°57'510.9
2018-Jun-21 00:00N 51°59' E 004°05'2 4.2
2018-Jun-20 23:30N 51°57' E 004°03'0 0.8
2018-Jun-20 22:59N 51°57' E 004°03'0 0.0
2018-Jun-20 22:29N 51°57' E 004°03'0 0.0
2018-Jun-20 21:59N 51°57' E 004°03'0 0.0
2018-Jun-20 21:29N 51°57' E 004°03'0 0.0
2018-Jun-20 20:59N 51°57' E 004°03'0 0.0
2018-Jun-20 20:29N 51°57' E 004°03'0 0.0
2018-Jun-20 19:59N 51°57' E 004°03'0 0.0
2018-Jun-20 19:29N 51°57' E 004°03'0 0.0
2018-Jun-20 18:59N 51°57' E 004°03'0 0.0
2018-Jun-20 18:29N 51°57' E 004°03'0 0.0
2018-Jun-20 17:59N 51°57' E 004°03'0 0.0
2018-Jun-20 17:29N 51°57' E 004°03'0 0.0
2018-Jun-20 16:59N 51°57' E 004°03'0 0.0
2018-Jun-20 16:29N 51°57' E 004°03'0 0.0
2018-Jun-20 15:59N 51°57' E 004°03'0 0.0
2018-Jun-20 15:29N 51°57' E 004°03'0 0.0
2018-Jun-20 14:59N 51°57' E 004°03'0 0.0
2018-Jun-20 14:29N 51°57' E 004°03'0 0.0
2018-Jun-20 13:59N 51°57' E 004°03'0 0.0
2018-Jun-20 13:29N 51°57' E 004°03'0 0.0
2018-Jun-20 12:59N 51°57' E 004°03'0 0.0
2018-Jun-20 12:29N 51°57' E 004°03'0 0.0
2018-Jun-20 11:59N 51°57' E 004°03'0 0.0
2018-Jun-20 11:29N 51°57' E 004°03'0 0.0
2018-Jun-20 10:59N 51°57' E 004°03'0 0.0
2018-Jun-20 10:29N 51°57' E 004°03'0 0.0
2018-Jun-20 09:59N 51°57' E 004°03'0 0.0
2018-Jun-20 09:29N 51°57' E 004°03'0 0.0
2018-Jun-20 08:59N 51°57' E 004°03'0 0.0
2018-Jun-20 08:29N 51°57' E 004°03'0 0.0
2018-Jun-20 07:59N 51°57' E 004°03'0 0.0
2018-Jun-20 07:29N 51°57' E 004°03'0 0.0
2018-Jun-20 06:59N 51°57' E 004°03'0 0.0
2018-Jun-20 06:30N 51°57' E 004°03'0 0.0
2018-Jun-20 05:59N 51°57' E 004°03'0 0.0
2018-Jun-20 05:29N 51°57' E 004°03'0 0.0
2018-Jun-20 04:59N 51°57' E 004°03'0 0.0
2018-Jun-20 04:29N 51°57' E 004°03'0 0.0
2018-Jun-20 03:59N 51°57' E 004°03'0 0.0
2018-Jun-20 03:29N 51°57' E 004°03'0 0.0
2018-Jun-20 02:59N 51°57' E 004°03'0 0.0
2018-Jun-20 02:29N 51°57' E 004°03'0 0.0
2018-Jun-20 01:59N 51°57' E 004°03'0 0.0
2018-Jun-20 01:29N 51°57' E 004°03'0 0.0
2018-Jun-20 00:59N 51°57' E 004°03'0 0.0
2018-Jun-20 00:29N 51°57' E 004°03'0 0.0
2018-Jun-19 23:59N 51°57' E 004°03'0 0.0
2018-Jun-19 23:29N 51°57' E 004°03'0 0.0
2018-Jun-19 22:59N 51°57' E 004°03'0 0.0
2018-Jun-19 22:29N 51°57' E 004°03'0 0.0
2018-Jun-19 21:59N 51°57' E 004°03'0 0.0
2018-Jun-19 21:29N 51°57' E 004°03'0 0.0
2018-Jun-19 20:59N 51°57' E 004°03'0 0.0
2018-Jun-19 20:29N 51°57' E 004°03'0 0.0
2018-Jun-19 19:59N 51°57' E 004°03'0 0.0
2018-Jun-19 19:29N 51°57' E 004°03'0 0.0
2018-Jun-19 18:59N 51°57' E 004°03'0 0.0
2018-Jun-19 18:29N 51°57' E 004°03'0 0.0
2018-Jun-19 17:59N 51°57' E 004°03'0 0.0
2018-Jun-19 17:29N 51°57' E 004°03'0 0.0
2018-Jun-19 16:59N 51°57' E 004°03'0 0.0
2018-Jun-19 16:26N 51°57' E 004°03'0 0.0
2018-Jun-19 15:59N 51°57' E 004°03'0 0.0
2018-Jun-19 15:29N 51°57' E 004°03'0 0.0
2018-Jun-19 14:59N 51°57' E 004°03'0 0.0
2018-Jun-19 14:29N 51°57' E 004°03'0 0.0
2018-Jun-19 13:59N 51°57' E 004°03'0 0.0
2018-Jun-19 13:29N 51°57' E 004°03'0 0.0
2018-Jun-19 12:59N 51°57' E 004°03'0 0.0
2018-Jun-19 12:29N 51°57' E 004°03'0 0.0
2018-Jun-19 11:59N 51°57' E 004°03'0 0.0
2018-Jun-19 11:29N 51°57' E 004°03'0 0.0
2018-Jun-19 10:59N 51°57' E 004°03'0 0.0
2018-Jun-19 10:29N 51°57' E 004°03'0 0.0
2018-Jun-19 09:59N 51°57' E 004°03'1 2.0
2018-Jun-19 09:30N 51°57' E 004°04'1 2.8
2018-Jun-19 09:00N 51°58' E 004°05'4 8.3
2018-Jun-19 08:30N 52°00' E 003°59'611.3
2018-Jun-19 08:00N 52°00' E 003°50'510.0
2018-Jun-19 07:30N 51°59' E 003°42'612.6
2018-Jun-19 07:00N 51°57' E 003°32'613.0
2018-Jun-19 06:30N 51°56' E 003°22'713.0
2018-Jun-19 06:00N 51°54' E 003°12'713.4
2018-Jun-19 05:30N 51°52' E 003°02'815.8
2018-Jun-19 05:00N 51°50' E 002°49'1016.0
2018-Jun-19 04:24N 51°45' E 002°36'717.1
2018-Jun-19 03:59N 51°40' E 002°27'816.8
2018-Jun-19 03:30N 51°34' E 002°18'816.8
2018-Jun-19 03:01N 51°28' E 002°11'917.3
2018-Jun-19 02:31N 51°19' E 002°08'816.9
2018-Jun-19 02:00N 51°12' E 002°01'917.8
2018-Jun-19 01:31N 51°08' E 001°48'816.9
2018-Jun-19 01:01N 51°03' E 001°38'816.9
2018-Jun-19 00:30N 50°56' E 001°30'816.4
2018-Jun-19 00:00N 50°48' E 001°24'816.6
2018-Jun-18 23:30N 50°41' E 001°19'816.9
2018-Jun-18 23:00N 50°35' E 001°08'917.3
2018-Jun-18 22:30N 50°30' E 000°58'1016.9
2018-Jun-18 21:54N 50°26' E 000°43'916.9
2018-Jun-18 21:20N 50°23' E 000°29'616.7
2018-Jun-18 21:01N 50°22' E 000°20'916.4
2018-Jun-18 20:27N 50°19' E 000°06'716.1
2018-Jun-18 20:01N 50°17' W 000°04'815.9
2018-Jun-18 19:31N 50°13' W 000°15'815.5
2018-Jun-18 19:00N 50°10' W 000°26'815.2
2018-Jun-18 18:30N 50°07' W 000°37'715.0
2018-Jun-18 18:01N 50°03' W 000°47'714.9
2018-Jun-18 17:30N 50°00' W 000°58'714.7
2018-Jun-18 17:01N 49°57' W 001°08'714.5
2018-Jun-18 16:30N 49°54' W 001°18'814.5
2018-Jun-18 15:56N 49°50' W 001°29'714.7
2018-Jun-18 15:29N 49°46' W 001°38'4 7.9
2018-Jun-18 15:00N 49°44' W 001°43'6 9.4
2018-Jun-18 14:25N 49°46' W 001°50'4 9.0
2018-Jun-18 14:00N 49°47' W 001°56'611.9
2018-Jun-18 13:30N 49°49' W 002°04'815.3
2018-Jun-18 12:58N 49°52' W 002°16'715.4
2018-Jun-18 12:29N 49°52' W 002°28'916.6
2018-Jun-18 11:55N 49°49' W 002°42'717.1
2018-Jun-18 11:30N 49°47' W 002°52'916.9
2018-Jun-18 11:00N 49°43' W 003°03'916.7
2018-Jun-18 10:28N 49°38' W 003°15'816.7
2018-Jun-18 10:00N 49°34' W 003°25'1116.6
2018-Jun-18 09:22N 49°30' W 003°40'816.8
2018-Jun-18 08:52N 49°25' W 003°51'816.9
2018-Jun-18 08:25N 49°22' W 004°01'816.9
2018-Jun-18 07:58N 49°18' W 004°11'817.6
2018-Jun-18 07:30N 49°14' W 004°22'918.5
2018-Jun-18 07:00N 49°09' W 004°35'918.3
2018-Jun-18 06:30N 49°05' W 004°47'1019.0
2018-Jun-18 06:00N 49°01' W 005°00'918.9
2018-Jun-18 05:30N 48°57' W 005°13'1018.9
2018-Jun-18 05:00N 48°52' W 005°26'918.5
2018-Jun-18 04:30N 48°47' W 005°37'918.3
2018-Jun-18 04:00N 48°39' W 005°44'1117.9
2018-Jun-18 03:23N 48°29' W 005°51'718.2
2018-Jun-18 03:00N 48°23' W 005°56'1018.3
2018-Jun-18 02:27N 48°14' W 006°03'1018.2
2018-Jun-18 01:53N 48°05' W 006°10'1317.9
2018-Jun-18 01:09N 47°53' W 006°19'317.5
2018-Jun-18 01:00N 47°50' W 006°21'53417.6
2018-Jun-16 18:37N 39°19' W 009°49'217.8
2018-Jun-16 18:30N 39°17' W 009°49'918.0
2018-Jun-16 18:00N 39°08' W 009°50'917.7
2018-Jun-16 17:30N 38°59' W 009°50'918.0
2018-Jun-16 17:00N 38°50' W 009°51'917.9
2018-Jun-16 16:31N 38°41' W 009°51'917.4
2018-Jun-16 16:00N 38°33' W 009°48'917.4
2018-Jun-16 15:30N 38°24' W 009°46'917.3
2018-Jun-16 15:00N 38°15' W 009°44'917.3
2018-Jun-16 14:31N 38°07' W 009°42'917.2
2018-Jun-16 14:01N 37°59' W 009°38'917.2
2018-Jun-16 13:30N 37°50' W 009°36'917.2
2018-Jun-16 13:01N 37°42' W 009°34'917.0
2018-Jun-16 12:31N 37°34' W 009°32'916.9
2018-Jun-16 12:00N 37°25' W 009°29'816.8
2018-Jun-16 11:30N 37°17' W 009°27'816.9
2018-Jun-16 11:01N 37°09' W 009°25'816.7
2018-Jun-16 10:30N 37°01' W 009°23'916.7
2018-Jun-16 09:56N 36°52' W 009°19'817.7
2018-Jun-16 09:30N 36°47' W 009°11'1017.3
2018-Jun-16 08:56N 36°43' W 009°00'717.2
2018-Jun-16 08:31N 36°40' W 008°52'917.7
2018-Jun-16 08:00N 36°38' W 008°41'917.8
2018-Jun-16 07:29N 36°35' W 008°30'918.0
2018-Jun-16 06:59N 36°32' W 008°19'918.1
2018-Jun-16 06:30N 36°30' W 008°09'917.9
2018-Jun-16 06:00N 36°27' W 007°59'1018.3
2018-Jun-16 05:28N 36°24' W 007°47'918.8
2018-Jun-16 05:00N 36°21' W 007°37'919.0
2018-Jun-16 04:30N 36°18' W 007°26'918.9
2018-Jun-16 04:01N 36°15' W 007°14'918.6
2018-Jun-16 03:30N 36°12' W 007°03'918.7
2018-Jun-16 03:00N 36°09' W 006°52'6119.1
2018-Jun-15 23:48N 35°58' W 005°38'414.2
2018-Jun-15 23:30N 35°58' W 005°33'713.6
2018-Jun-15 23:00N 35°60' W 005°24'612.6
2018-Jun-15 22:30N 36°01' W 005°17'714.8
2018-Jun-15 22:00N 36°03' W 005°08'917.8
2018-Jun-15 21:30N 36°04' W 004°57'1017.1
2018-Jun-15 20:56N 36°06' W 004°45'916.5
2018-Jun-15 20:24N 36°07' W 004°34'  

Dump ship's entire track history